sensor_id;sensor_type;location;lat;lon;timestamp;P1;P2;P0
46302;PMS7003;32029;51.358;5.628;2023-12-20T00:01:29;13.67;7.00;6.00
46302;PMS7003;32029;51.358;5.628;2023-12-20T00:03:56;6.00;6.00;5.00
46302;PMS7003;32029;51.358;5.628;2023-12-20T00:06:23;10.00;8.00;5.80
46302;PMS7003;32029;51.358;5.628;2023-12-20T00:08:50;6.67;5.67;3.00
46302;PMS7003;32029;51.358;5.628;2023-12-20T00:11:18;7.80;5.60;5.20
46302;PMS7003;32029;51.358;5.628;2023-12-20T00:13:46;9.60;7.00;5.00
46302;PMS7003;32029;51.358;5.628;2023-12-20T00:16:12;6.67;3.00;2.00
46302;PMS7003;32029;51.358;5.628;2023-12-20T00:18:39;6.33;5.00;3.00
46302;PMS7003;32029;51.358;5.628;2023-12-20T00:21:06;8.67;5.67;3.00
46302;PMS7003;32029;51.358;5.628;2023-12-20T00:23:33;4.67;4.67;2.33
46302;PMS7003;32029;51.358;5.628;2023-12-20T00:25:59;5.67;3.67;2.00
46302;PMS7003;32029;51.358;5.628;2023-12-20T00:28:26;5.00;5.00;3.00
46302;PMS7003;32029;51.358;5.628;2023-12-20T00:33:32;6.33;4.33;3.00
46302;PMS7003;32029;51.358;5.628;2023-12-20T00:35:59;2.33;1.33;1.00
46302;PMS7003;32029;51.358;5.628;2023-12-20T00:38:26;3.00;3.00;2.00
46302;PMS7003;32029;51.358;5.628;2023-12-20T00:40:56;9.67;3.00;2.00
46302;PMS7003;32029;51.358;5.628;2023-12-20T00:43:22;5.00;2.67;2.00
46302;PMS7003;32029;51.358;5.628;2023-12-20T00:45:49;6.67;2.33;1.00
46302;PMS7003;32029;51.358;5.628;2023-12-20T00:48:16;5.00;3.00;2.00
46302;PMS7003;32029;51.358;5.628;2023-12-20T00:50:43;5.67;3.00;2.00
46302;PMS7003;32029;51.358;5.628;2023-12-20T00:53:09;4.33;3.67;2.67
46302;PMS7003;32029;51.358;5.628;2023-12-20T00:55:36;6.00;3.67;2.00
46302;PMS7003;32029;51.358;5.628;2023-12-20T00:58:04;5.20;3.40;1.80
46302;PMS7003;32029;51.358;5.628;2023-12-20T01:00:31;3.00;2.00;2.00
46302;PMS7003;32029;51.358;5.628;2023-12-20T01:10:24;5.67;2.00;2.00
46302;PMS7003;32029;51.358;5.628;2023-12-20T01:12:55;5.80;5.00;2.00
46302;PMS7003;32029;51.358;5.628;2023-12-20T01:15:22;2.00;2.00;1.33
46302;PMS7003;32029;51.358;5.628;2023-12-20T01:17:49;3.67;2.00;1.00
46302;PMS7003;32029;51.358;5.628;2023-12-20T01:20:16;5.67;3.67;3.00
46302;PMS7003;32029;51.358;5.628;2023-12-20T01:22:43;4.33;2.00;1.33
46302;PMS7003;32029;51.358;5.628;2023-12-20T01:25:15;7.33;3.00;2.00
46302;PMS7003;32029;51.358;5.628;2023-12-20T01:27:41;3.67;2.67;1.00
46302;PMS7003;32029;51.358;5.628;2023-12-20T01:30:09;2.00;2.00;2.00
46302;PMS7003;32029;51.358;5.628;2023-12-20T01:32:36;5.00;3.00;2.00
46302;PMS7003;32029;51.358;5.628;2023-12-20T01:35:04;2.00;2.00;1.00
46302;PMS7003;32029;51.358;5.628;2023-12-20T01:37:31;2.33;2.00;1.00
46302;PMS7003;32029;51.358;5.628;2023-12-20T01:39:58;5.00;3.00;2.00
46302;PMS7003;32029;51.358;5.628;2023-12-20T01:42:25;3.67;1.00;1.00
46302;PMS7003;32029;51.358;5.628;2023-12-20T01:44:51;1.00;1.00;0.00
46302;PMS7003;32029;51.358;5.628;2023-12-20T01:47:19;4.33;1.00;1.00
46302;PMS7003;32029;51.358;5.628;2023-12-20T01:49:49;2.00;2.00;1.00
46302;PMS7003;32029;51.358;5.628;2023-12-20T01:52:16;0.67;0.67;0.33
46302;PMS7003;32029;51.358;5.628;2023-12-20T01:54:43;2.00;2.00;1.33
46302;PMS7003;32029;51.358;5.628;2023-12-20T01:57:10;0.67;0.67;0.00
46302;PMS7003;32029;51.358;5.628;2023-12-20T01:59:38;3.00;3.00;2.00
46302;PMS7003;32029;51.358;5.628;2023-12-20T02:02:05;5.00;2.00;1.33
46302;PMS7003;32029;51.358;5.628;2023-12-20T02:04:34;3.67;2.00;2.00
46302;PMS7003;32029;51.358;5.628;2023-12-20T02:07:01;2.00;2.00;1.33
46302;PMS7003;32029;51.358;5.628;2023-12-20T02:09:31;4.00;2.00;2.00
46302;PMS7003;32029;51.358;5.628;2023-12-20T02:11:58;2.00;2.00;1.00
46302;PMS7003;32029;51.358;5.628;2023-12-20T02:14:25;1.00;1.00;1.00
46302;PMS7003;32029;51.358;5.628;2023-12-20T02:16:52;2.67;2.67;1.00
46302;PMS7003;32029;51.358;5.628;2023-12-20T02:19:20;1.60;1.60;1.40
46302;PMS7003;32029;51.358;5.628;2023-12-20T02:21:47;3.00;2.67;1.67
46302;PMS7003;32029;51.358;5.628;2023-12-20T02:24:13;2.33;2.33;2.00
46302;PMS7003;32029;51.358;5.628;2023-12-20T02:26:40;2.33;2.33;2.00
46302;PMS7003;32029;51.358;5.628;2023-12-20T02:29:07;5.67;4.33;2.33
46302;PMS7003;32029;51.358;5.628;2023-12-20T02:31:34;5.33;5.33;2.33
46302;PMS7003;32029;51.358;5.628;2023-12-20T02:34:01;3.00;3.00;2.00
46302;PMS7003;32029;51.358;5.628;2023-12-20T02:36:28;2.33;1.67;1.33
46302;PMS7003;32029;51.358;5.628;2023-12-20T02:38:54;6.00;2.67;2.00
46302;PMS7003;32029;51.358;5.628;2023-12-20T02:41:22;4.60;3.00;2.00
46302;PMS7003;32029;51.358;5.628;2023-12-20T02:43:49;6.67;3.00;2.00
46302;PMS7003;32029;51.358;5.628;2023-12-20T02:46:15;3.00;3.00;2.00
46302;PMS7003;32029;51.358;5.628;2023-12-20T02:48:43;5.33;5.33;3.00
46302;PMS7003;32029;51.358;5.628;2023-12-20T02:51:10;5.33;1.67;1.00
46302;PMS7003;32029;51.358;5.628;2023-12-20T02:53:36;3.00;3.00;2.33
46302;PMS7003;32029;51.358;5.628;2023-12-20T02:56:03;5.67;4.33;3.00
46302;PMS7003;32029;51.358;5.628;2023-12-20T02:58:30;9.00;4.33;2.00
46302;PMS7003;32029;51.358;5.628;2023-12-20T03:00:57;5.00;4.33;3.00
46302;PMS7003;32029;51.358;5.628;2023-12-20T03:03:23;5.67;4.33;3.00
46302;PMS7003;32029;51.358;5.628;2023-12-20T03:05:50;7.00;5.00;3.00
46302;PMS7003;32029;51.358;5.628;2023-12-20T03:08:17;5.00;3.67;2.00
46302;PMS7003;32029;51.358;5.628;2023-12-20T03:10:44;7.00;6.33;3.67
46302;PMS7003;32029;51.358;5.628;2023-12-20T03:13:11;5.67;5.67;3.00
46302;PMS7003;32029;51.358;5.628;2023-12-20T03:15:39;5.00;5.00;2.00
46302;PMS7003;32029;51.358;5.628;2023-12-20T03:18:06;3.40;3.00;2.80
46302;PMS7003;32029;51.358;5.628;2023-12-20T03:20:34;7.60;5.60;2.80
46302;PMS7003;32029;51.358;5.628;2023-12-20T03:23:01;6.67;6.67;4.33
46302;PMS7003;32029;51.358;5.628;2023-12-20T03:25:28;9.00;9.00;6.00
46302;PMS7003;32029;51.358;5.628;2023-12-20T03:27:55;9.00;9.00;5.00
46302;PMS7003;32029;51.358;5.628;2023-12-20T03:30:22;9.67;7.67;5.00
46302;PMS7003;32029;51.358;5.628;2023-12-20T03:32:50;5.40;5.40;3.00
46302;PMS7003;32029;51.358;5.628;2023-12-20T03:35:18;6.40;6.00;4.40
46302;PMS7003;32029;51.358;5.628;2023-12-20T03:37:45;7.67;7.67;5.00
46302;PMS7003;32029;51.358;5.628;2023-12-20T03:40:12;9.20;6.60;5.40
46302;PMS7003;32029;51.358;5.628;2023-12-20T03:42:41;8.60;6.60;5.20
46302;PMS7003;32029;51.358;5.628;2023-12-20T03:45:08;9.00;7.67;5.00
46302;PMS7003;32029;51.358;5.628;2023-12-20T03:47:35;7.00;7.00;5.67
46302;PMS7003;32029;51.358;5.628;2023-12-20T03:50:03;8.80;5.80;3.80
46302;PMS7003;32029;51.358;5.628;2023-12-20T03:52:32;8.33;8.33;5.00
46302;PMS7003;32029;51.358;5.628;2023-12-20T03:54:59;6.67;3.67;1.67
46302;PMS7003;32029;51.358;5.628;2023-12-20T03:57:26;11.33;6.00;5.00
46302;PMS7003;32029;51.358;5.628;2023-12-20T03:59:57;10.80;5.60;3.80
46302;PMS7003;32029;51.358;5.628;2023-12-20T04:02:24;12.67;8.67;5.33
46302;PMS7003;32029;51.358;5.628;2023-12-20T04:04:51;7.00;6.00;6.00
46302;PMS7003;32029;51.358;5.628;2023-12-20T04:07:20;8.60;7.00;5.00
46302;PMS7003;32029;51.358;5.628;2023-12-20T04:09:47;6.67;6.67;5.67
46302;PMS7003;32029;51.358;5.628;2023-12-20T04:12:15;7.60;6.20;3.00
46302;PMS7003;32029;51.358;5.628;2023-12-20T04:14:43;8.00;6.60;4.80
46302;PMS7003;32029;51.358;5.628;2023-12-20T04:17:12;9.00;6.40;3.00
46302;PMS7003;32029;51.358;5.628;2023-12-20T04:19:40;8.33;7.00;3.67
46302;PMS7003;32029;51.358;5.628;2023-12-20T04:22:06;6.33;6.33;4.33
46302;PMS7003;32029;51.358;5.628;2023-12-20T04:24:33;6.33;5.33;3.00
46302;PMS7003;32029;51.358;5.628;2023-12-20T04:27:00;8.67;6.67;3.00
46302;PMS7003;32029;51.358;5.628;2023-12-20T04:29:28;6.00;6.00;4.20
46302;PMS7003;32029;51.358;5.628;2023-12-20T04:31:55;6.67;5.67;3.67
46302;PMS7003;32029;51.358;5.628;2023-12-20T04:34:22;7.67;5.00;3.00
46302;PMS7003;32029;51.358;5.628;2023-12-20T04:36:49;3.00;3.00;3.00
46302;PMS7003;32029;51.358;5.628;2023-12-20T04:39:17;9.20;7.40;3.40
46302;PMS7003;32029;51.358;5.628;2023-12-20T04:41:45;6.60;5.60;3.40
46302;PMS7003;32029;51.358;5.628;2023-12-20T04:44:14;3.00;3.00;1.00
46302;PMS7003;32029;51.358;5.628;2023-12-20T04:46:40;14.00;8.33;6.00
46302;PMS7003;32029;51.358;5.628;2023-12-20T04:49:08;10.60;9.00;3.80
46302;PMS7003;32029;51.358;5.628;2023-12-20T04:51:36;8.20;8.20;3.40
46302;PMS7003;32029;51.358;5.628;2023-12-20T04:54:05;8.20;8.20;5.20
46302;PMS7003;32029;51.358;5.628;2023-12-20T04:56:32;10.33;8.67;5.00
46302;PMS7003;32029;51.358;5.628;2023-12-20T04:58:58;10.33;6.67;5.67
46302;PMS7003;32029;51.358;5.628;2023-12-20T05:01:27;11.80;6.80;5.80
46302;PMS7003;32029;51.358;5.628;2023-12-20T05:03:55;10.40;7.40;5.20
46302;PMS7003;32029;51.358;5.628;2023-12-20T05:06:22;10.67;7.00;3.67
46302;PMS7003;32029;51.358;5.628;2023-12-20T05:08:48;10.00;7.00;5.33
46302;PMS7003;32029;51.358;5.628;2023-12-20T05:14:30;5.00;5.00;3.00
46302;PMS7003;32029;51.358;5.628;2023-12-20T05:16:57;11.00;9.00;5.67
46302;PMS7003;32029;51.358;5.628;2023-12-20T05:19:25;6.20;6.00;4.60
46302;PMS7003;32029;51.358;5.628;2023-12-20T05:21:52;7.00;2.00;0.33
46302;PMS7003;32029;51.358;5.628;2023-12-20T05:29:02;7.67;6.00;5.00
46302;PMS7003;32029;51.358;5.628;2023-12-20T05:31:47;2.67;2.00;1.00
46302;PMS7003;32029;51.358;5.628;2023-12-20T05:34:14;10.33;7.00;3.00
46302;PMS7003;32029;51.358;5.628;2023-12-20T05:36:42;9.20;8.60;5.00
46302;PMS7003;32029;51.358;5.628;2023-12-20T05:39:08;6.00;6.00;5.00
46302;PMS7003;32029;51.358;5.628;2023-12-20T05:41:36;4.20;4.20;2.60
46302;PMS7003;32029;51.358;5.628;2023-12-20T05:44:04;6.40;5.80;3.40
46302;PMS7003;32029;51.358;5.628;2023-12-20T05:46:32;5.00;5.00;3.00
46302;PMS7003;32029;51.358;5.628;2023-12-20T05:48:59;5.33;3.00;2.00
46302;PMS7003;32029;51.358;5.628;2023-12-20T05:51:26;8.67;6.67;2.67
46302;PMS7003;32029;51.358;5.628;2023-12-20T05:53:53;11.33;8.67;5.00
46302;PMS7003;32029;51.358;5.628;2023-12-20T05:56:20;7.00;4.33;2.67
46302;PMS7003;32029;51.358;5.628;2023-12-20T05:58:51;5.00;3.80;3.40
46302;PMS7003;32029;51.358;5.628;2023-12-20T06:01:19;9.40;6.60;5.00
46302;PMS7003;32029;51.358;5.628;2023-12-20T06:03:46;5.67;2.67;2.00
46302;PMS7003;32029;51.358;5.628;2023-12-20T06:06:12;6.00;4.33;3.00
46302;PMS7003;32029;51.358;5.628;2023-12-20T06:08:40;5.67;3.00;3.00
46302;PMS7003;32029;51.358;5.628;2023-12-20T06:11:08;6.80;3.80;2.80
46302;PMS7003;32029;51.358;5.628;2023-12-20T06:13:35;7.67;5.00;3.67
46302;PMS7003;32029;51.358;5.628;2023-12-20T06:16:02;7.33;5.33;2.67
46302;PMS7003;32029;51.358;5.628;2023-12-20T06:18:29;2.00;2.00;1.00
46302;PMS7003;32029;51.358;5.628;2023-12-20T06:20:57;7.00;5.40;2.60
46302;PMS7003;32029;51.358;5.628;2023-12-20T06:23:26;10.40;3.80;2.60
46302;PMS7003;32029;51.358;5.628;2023-12-20T06:25:54;6.33;2.00;1.00
46302;PMS7003;32029;51.358;5.628;2023-12-20T06:28:20;5.00;3.00;1.00
46302;PMS7003;32029;51.358;5.628;2023-12-20T06:30:49;3.80;3.80;2.60
46302;PMS7003;32029;51.358;5.628;2023-12-20T06:33:19;6.40;4.60;3.40
46302;PMS7003;32029;51.358;5.628;2023-12-20T06:35:48;9.00;5.67;5.00
46302;PMS7003;32029;51.358;5.628;2023-12-20T06:38:17;6.40;5.20;2.80
46302;PMS7003;32029;51.358;5.628;2023-12-20T06:40:44;10.00;6.00;3.67
46302;PMS7003;32029;51.358;5.628;2023-12-20T06:43:13;6.00;5.00;3.00
46302;PMS7003;32029;51.358;5.628;2023-12-20T06:45:40;7.00;5.33;3.00
46302;PMS7003;32029;51.358;5.628;2023-12-20T06:48:10;8.80;5.80;3.00
46302;PMS7003;32029;51.358;5.628;2023-12-20T06:50:39;3.40;3.40;2.40
46302;PMS7003;32029;51.358;5.628;2023-12-20T06:53:06;6.50;6.00;3.00
46302;PMS7003;32029;51.358;5.628;2023-12-20T06:55:34;8.33;6.00;3.00
46302;PMS7003;32029;51.358;5.628;2023-12-20T06:58:02;5.00;3.00;2.67
46302;PMS7003;32029;51.358;5.628;2023-12-20T07:00:30;6.33;3.67;2.00
46302;PMS7003;32029;51.358;5.628;2023-12-20T07:02:57;3.00;3.00;3.00
46302;PMS7003;32029;51.358;5.628;2023-12-20T07:05:25;4.60;4.60;3.00
46302;PMS7003;32029;51.358;5.628;2023-12-20T07:07:53;5.00;5.00;2.67
46302;PMS7003;32029;51.358;5.628;2023-12-20T07:10:20;5.67;5.00;3.67
46302;PMS7003;32029;51.358;5.628;2023-12-20T07:12:47;6.80;5.40;2.80
46302;PMS7003;32029;51.358;5.628;2023-12-20T07:15:16;8.60;5.80;4.40
46302;PMS7003;32029;51.358;5.628;2023-12-20T07:17:44;6.80;6.40;4.40
46302;PMS7003;32029;51.358;5.628;2023-12-20T07:20:10;8.00;5.00;3.00
46302;PMS7003;32029;51.358;5.628;2023-12-20T07:22:37;5.00;5.00;2.00
46302;PMS7003;32029;51.358;5.628;2023-12-20T07:25:06;8.40;8.40;4.60
46302;PMS7003;32029;51.358;5.628;2023-12-20T07:27:33;7.67;6.33;5.00
46302;PMS7003;32029;51.358;5.628;2023-12-20T07:30:00;8.67;7.00;4.33
46302;PMS7003;32029;51.358;5.628;2023-12-20T07:32:27;7.67;7.67;5.67
46302;PMS7003;32029;51.358;5.628;2023-12-20T07:34:53;6.00;6.00;3.00
46302;PMS7003;32029;51.358;5.628;2023-12-20T07:37:21;5.00;5.00;2.00
46302;PMS7003;32029;51.358;5.628;2023-12-20T07:39:47;7.67;5.00;3.00
46302;PMS7003;32029;51.358;5.628;2023-12-20T07:42:15;6.40;5.20;3.80
46302;PMS7003;32029;51.358;5.628;2023-12-20T07:44:43;5.80;5.00;3.00
46302;PMS7003;32029;51.358;5.628;2023-12-20T07:47:10;7.00;5.00;3.00
46302;PMS7003;32029;51.358;5.628;2023-12-20T07:49:38;3.00;3.00;2.00
46302;PMS7003;32029;51.358;5.628;2023-12-20T07:52:05;7.00;7.00;5.00
46302;PMS7003;32029;51.358;5.628;2023-12-20T07:54:32;7.00;5.67;3.00
46302;PMS7003;32029;51.358;5.628;2023-12-20T07:56:59;2.33;0.67;0.00
46302;PMS7003;32029;51.358;5.628;2023-12-20T07:59:26;11.00;7.00;3.00
46302;PMS7003;32029;51.358;5.628;2023-12-20T08:01:52;5.33;3.00;2.33
46302;PMS7003;32029;51.358;5.628;2023-12-20T08:04:19;7.00;3.67;3.00
46302;PMS7003;32029;51.358;5.628;2023-12-20T08:06:46;6.00;5.00;3.00
46302;PMS7003;32029;51.358;5.628;2023-12-20T08:09:13;6.33;5.00;3.00
46302;PMS7003;32029;51.358;5.628;2023-12-20T08:11:39;1.00;1.00;1.00
46302;PMS7003;32029;51.358;5.628;2023-12-20T08:14:06;5.00;5.00;3.00
46302;PMS7003;32029;51.358;5.628;2023-12-20T08:16:34;6.40;3.80;2.40
46302;PMS7003;32029;51.358;5.628;2023-12-20T08:19:00;5.00;3.00;2.33
46302;PMS7003;32029;51.358;5.628;2023-12-20T08:21:28;6.00;5.00;3.00
46302;PMS7003;32029;51.358;5.628;2023-12-20T08:23:57;9.80;3.20;2.00
46302;PMS7003;32029;51.358;5.628;2023-12-20T08:26:23;3.00;3.00;1.33
46302;PMS7003;32029;51.358;5.628;2023-12-20T08:28:50;5.33;2.33;2.00
46302;PMS7003;32029;51.358;5.628;2023-12-20T08:31:17;6.67;4.33;2.67
46302;PMS7003;32029;51.358;5.628;2023-12-20T08:33:44;9.67;6.00;3.00
46302;PMS7003;32029;51.358;5.628;2023-12-20T08:36:12;4.33;4.33;2.00
46302;PMS7003;32029;51.358;5.628;2023-12-20T08:38:39;2.00;2.00;2.00
46302;PMS7003;32029;51.358;5.628;2023-12-20T08:41:06;3.67;3.00;2.67
46302;PMS7003;32029;51.358;5.628;2023-12-20T08:43:34;5.20;2.20;1.80
46302;PMS7003;32029;51.358;5.628;2023-12-20T08:46:02;5.33;3.67;1.67
46302;PMS7003;32029;51.358;5.628;2023-12-20T08:48:28;6.33;5.00;2.33
46302;PMS7003;32029;51.358;5.628;2023-12-20T08:50:55;4.33;4.33;2.00
46302;PMS7003;32029;51.358;5.628;2023-12-20T08:53:22;10.00;6.33;5.00
46302;PMS7003;32029;51.358;5.628;2023-12-20T08:55:49;5.67;3.00;2.00
46302;PMS7003;32029;51.358;5.628;2023-12-20T08:58:16;6.75;5.00;3.00
46302;PMS7003;32029;51.358;5.628;2023-12-20T09:00:43;5.00;5.00;4.33
46302;PMS7003;32029;51.358;5.628;2023-12-20T09:03:10;3.67;3.67;2.00
46302;PMS7003;32029;51.358;5.628;2023-12-20T09:05:36;9.00;6.00;3.00
46302;PMS7003;32029;51.358;5.628;2023-12-20T09:08:03;8.67;6.33;4.33
46302;PMS7003;32029;51.358;5.628;2023-12-20T09:10:30;8.00;6.00;4.33
46302;PMS7003;32029;51.358;5.628;2023-12-20T09:12:58;7.20;6.80;4.20
46302;PMS7003;32029;51.358;5.628;2023-12-20T09:15:25;3.67;3.67;3.00
46302;PMS7003;32029;51.358;5.628;2023-12-20T09:17:54;12.20;8.60;4.60
46302;PMS7003;32029;51.358;5.628;2023-12-20T09:20:22;7.80;5.40;3.00
46302;PMS7003;32029;51.358;5.628;2023-12-20T09:22:49;9.67;6.33;5.67
46302;PMS7003;32029;51.358;5.628;2023-12-20T09:25:17;10.00;6.20;5.00
46302;PMS7003;32029;51.358;5.628;2023-12-20T09:27:44;7.33;5.67;3.00
46302;PMS7003;32029;51.358;5.628;2023-12-20T09:30:12;6.40;6.40;5.00
46302;PMS7003;32029;51.358;5.628;2023-12-20T09:32:40;10.00;6.40;5.40
46302;PMS7003;32029;51.358;5.628;2023-12-20T09:35:08;7.60;5.00;3.00
46302;PMS7003;32029;51.358;5.628;2023-12-20T09:37:35;7.00;6.00;3.00
46302;PMS7003;32029;51.358;5.628;2023-12-20T09:40:02;6.33;4.33;1.33
46302;PMS7003;32029;51.358;5.628;2023-12-20T09:45:20;7.60;5.80;3.00
46302;PMS7003;32029;51.358;5.628;2023-12-20T09:47:55;14.00;9.60;4.20
46302;PMS7003;32029;51.358;5.628;2023-12-20T09:50:24;10.00;3.67;3.00
46302;PMS7003;32029;51.358;5.628;2023-12-20T09:52:51;8.00;5.67;3.00
46302;PMS7003;32029;51.358;5.628;2023-12-20T09:55:19;8.67;5.00;2.00
46302;PMS7003;32029;51.358;5.628;2023-12-20T09:57:49;6.75;6.00;5.25
46302;PMS7003;32029;51.358;5.628;2023-12-20T10:00:15;7.00;3.00;2.00
46302;PMS7003;32029;51.358;5.628;2023-12-20T10:02:45;10.60;7.20;5.40
46302;PMS7003;32029;51.358;5.628;2023-12-20T10:05:26;7.33;7.00;3.00
46302;PMS7003;32029;51.358;5.628;2023-12-20T10:07:57;8.00;3.67;2.33
46302;PMS7003;32029;51.358;5.628;2023-12-20T10:10:24;6.00;6.00;5.67
46302;PMS7003;32029;51.358;5.628;2023-12-20T10:13:03;7.00;6.00;5.00
46302;PMS7003;32029;51.358;5.628;2023-12-20T10:15:34;5.33;2.00;0.00
46302;PMS7003;32029;51.358;5.628;2023-12-20T10:18:04;6.00;6.00;5.00
46302;PMS7003;32029;51.358;5.628;2023-12-20T10:20:32;14.80;6.60;3.00
46302;PMS7003;32029;51.358;5.628;2023-12-20T10:23:00;7.67;7.00;5.00
46302;PMS7003;32029;51.358;5.628;2023-12-20T10:25:28;6.00;4.80;2.00
46302;PMS7003;32029;51.358;5.628;2023-12-20T10:28:09;13.33;8.67;6.33
46302;PMS7003;32029;51.358;5.628;2023-12-20T10:30:40;10.00;6.00;5.00
46302;PMS7003;32029;51.358;5.628;2023-12-20T10:33:08;8.67;5.67;4.33
46302;PMS7003;32029;51.358;5.628;2023-12-20T10:35:37;8.33;7.00;5.00
46302;PMS7003;32029;51.358;5.628;2023-12-20T10:38:05;9.80;5.40;4.20
46302;PMS7003;32029;51.358;5.628;2023-12-20T10:40:35;10.60;7.40;5.00
46302;PMS7003;32029;51.358;5.628;2023-12-20T10:43:03;7.33;6.33;5.67
46302;PMS7003;32029;51.358;5.628;2023-12-20T10:45:30;5.00;5.00;5.00
46302;PMS7003;32029;51.358;5.628;2023-12-20T10:48:00;6.00;6.00;5.00
46302;PMS7003;32029;51.358;5.628;2023-12-20T10:50:29;6.00;4.33;2.67
46302;PMS7003;32029;51.358;5.628;2023-12-20T10:52:57;6.00;6.00;3.67
46302;PMS7003;32029;51.358;5.628;2023-12-20T10:55:25;4.67;4.67;3.00
46302;PMS7003;32029;51.358;5.628;2023-12-20T10:57:52;5.67;5.00;3.00
46302;PMS7003;32029;51.358;5.628;2023-12-20T11:00:26;7.33;6.33;5.00
46302;PMS7003;32029;51.358;5.628;2023-12-20T11:03:00;7.00;5.20;3.40
46302;PMS7003;32029;51.358;5.628;2023-12-20T11:05:38;10.60;6.00;4.60
46302;PMS7003;32029;51.358;5.628;2023-12-20T11:08:17;4.67;2.33;1.67
46302;PMS7003;32029;51.358;5.628;2023-12-20T11:14:03;7.33;6.00;4.33
46302;PMS7003;32029;51.358;5.628;2023-12-20T11:16:37;2.33;2.33;2.00
46302;PMS7003;32029;51.358;5.628;2023-12-20T11:19:05;10.00;2.00;1.00
46302;PMS7003;32029;51.358;5.628;2023-12-20T11:21:33;7.00;6.00;3.40
46302;PMS7003;32029;51.358;5.628;2023-12-20T11:24:01;6.67;6.00;5.00
46302;PMS7003;32029;51.358;5.628;2023-12-20T11:26:29;5.67;2.00;0.67
46302;PMS7003;32029;51.358;5.628;2023-12-20T11:31:55;3.67;2.33;1.00
46302;PMS7003;32029;51.358;5.628;2023-12-20T11:34:22;9.33;5.67;5.00
46302;PMS7003;32029;51.358;5.628;2023-12-20T11:36:58;11.40;7.60;5.00
46302;PMS7003;32029;51.358;5.628;2023-12-20T11:39:28;4.33;2.00;1.00
46302;PMS7003;32029;51.358;5.628;2023-12-20T11:41:57;2.33;1.67;0.00
46302;PMS7003;32029;51.358;5.628;2023-12-20T11:44:30;3.00;3.00;2.00
46302;PMS7003;32029;51.358;5.628;2023-12-20T11:46:58;5.00;2.67;1.00
46302;PMS7003;32029;51.358;5.628;2023-12-20T11:49:25;8.00;3.00;2.33
46302;PMS7003;32029;51.358;5.628;2023-12-20T11:51:52;5.00;5.00;3.00
46302;PMS7003;32029;51.358;5.628;2023-12-20T11:54:19;7.00;7.00;6.00
46302;PMS7003;32029;51.358;5.628;2023-12-20T11:56:46;7.67;6.00;3.67
46302;PMS7003;32029;51.358;5.628;2023-12-20T11:59:13;9.00;6.33;5.00
46302;PMS7003;32029;51.358;5.628;2023-12-20T12:01:47;6.33;6.33;3.67
46302;PMS7003;32029;51.358;5.628;2023-12-20T12:04:15;11.00;7.00;3.67
46302;PMS7003;32029;51.358;5.628;2023-12-20T12:06:45;6.20;6.20;5.60
46302;PMS7003;32029;51.358;5.628;2023-12-20T12:09:13;8.00;6.60;5.00
46302;PMS7003;32029;51.358;5.628;2023-12-20T12:11:41;6.33;3.67;3.67
46302;PMS7003;32029;51.358;5.628;2023-12-20T12:14:09;6.00;4.67;2.00
46302;PMS7003;32029;51.358;5.628;2023-12-20T12:16:39;7.80;7.00;5.40
46302;PMS7003;32029;51.358;5.628;2023-12-20T12:19:07;7.67;6.67;5.00
46302;PMS7003;32029;51.358;5.628;2023-12-20T12:21:46;11.00;6.00;5.00
46302;PMS7003;32029;51.358;5.628;2023-12-20T12:24:14;10.80;6.80;4.60
46302;PMS7003;32029;51.358;5.628;2023-12-20T12:26:41;7.67;7.67;5.33
46302;PMS7003;32029;51.358;5.628;2023-12-20T12:29:10;16.00;10.00;6.00
46302;PMS7003;32029;51.358;5.628;2023-12-20T12:31:38;6.20;6.20;5.00
46302;PMS7003;32029;51.358;5.628;2023-12-20T12:34:06;8.80;6.60;4.20
46302;PMS7003;32029;51.358;5.628;2023-12-20T12:36:36;7.20;3.20;3.00
46302;PMS7003;32029;51.358;5.628;2023-12-20T12:39:04;11.40;8.00;6.00
46302;PMS7003;32029;51.358;5.628;2023-12-20T12:41:32;8.00;7.00;5.80
46302;PMS7003;32029;51.358;5.628;2023-12-20T12:44:00;3.00;3.00;3.00
46302;PMS7003;32029;51.358;5.628;2023-12-20T12:46:27;9.33;6.67;5.33
46302;PMS7003;32029;51.358;5.628;2023-12-20T12:48:54;9.67;7.00;7.00
46302;PMS7003;32029;51.358;5.628;2023-12-20T12:51:23;11.00;10.60;7.00
46302;PMS7003;32029;51.358;5.628;2023-12-20T12:53:51;7.80;7.80;5.80
46302;PMS7003;32029;51.358;5.628;2023-12-20T12:56:21;6.80;6.80;5.20
46302;PMS7003;32029;51.358;5.628;2023-12-20T12:58:48;11.00;10.00;8.00
46302;PMS7003;32029;51.358;5.628;2023-12-20T13:01:16;9.60;7.00;5.00
46302;PMS7003;32029;51.358;5.628;2023-12-20T13:03:44;8.80;8.00;6.40
46302;PMS7003;32029;51.358;5.628;2023-12-20T13:06:11;9.33;7.00;6.00
46302;PMS7003;32029;51.358;5.628;2023-12-20T13:08:38;9.67;7.67;6.00
46302;PMS7003;32029;51.358;5.628;2023-12-20T13:11:04;11.67;10.00;7.00
46302;PMS7003;32029;51.358;5.628;2023-12-20T13:13:31;14.00;10.33;7.00
46302;PMS7003;32029;51.358;5.628;2023-12-20T13:16:00;13.50;12.00;8.00
46302;PMS7003;32029;51.358;5.628;2023-12-20T13:18:27;9.67;9.67;7.67
46302;PMS7003;32029;51.358;5.628;2023-12-20T13:20:55;12.40;8.40;6.60
46302;PMS7003;32029;51.358;5.628;2023-12-20T13:23:22;15.33;12.67;8.00
46302;PMS7003;32029;51.358;5.628;2023-12-20T13:25:49;11.00;9.33;7.00
46302;PMS7003;32029;51.358;5.628;2023-12-20T13:28:17;10.40;7.00;3.80
46302;PMS7003;32029;51.358;5.628;2023-12-20T13:30:45;13.40;10.20;7.00
46302;PMS7003;32029;51.358;5.628;2023-12-20T13:33:12;15.67;14.67;9.00
46302;PMS7003;32029;51.358;5.628;2023-12-20T13:35:41;9.00;7.00;5.60
46302;PMS7003;32029;51.358;5.628;2023-12-20T13:38:08;10.33;8.00;6.00
46302;PMS7003;32029;51.358;5.628;2023-12-20T13:40:36;12.80;7.00;6.60
46302;PMS7003;32029;51.358;5.628;2023-12-20T13:43:02;15.33;11.33;8.00
46302;PMS7003;32029;51.358;5.628;2023-12-20T13:45:30;14.40;9.60;7.00
46302;PMS7003;32029;51.358;5.628;2023-12-20T13:47:58;12.33;10.00;8.00
46302;PMS7003;32029;51.358;5.628;2023-12-20T13:50:27;16.83;12.67;9.17
46302;PMS7003;32029;51.358;5.628;2023-12-20T13:52:55;9.80;9.80;8.20
46302;PMS7003;32029;51.358;5.628;2023-12-20T13:55:23;12.60;10.40;7.00
46302;PMS7003;32029;51.358;5.628;2023-12-20T13:57:51;17.00;10.33;8.00
46302;PMS7003;32029;51.358;5.628;2023-12-20T14:00:19;11.40;9.60;7.20
46302;PMS7003;32029;51.358;5.628;2023-12-20T14:02:47;15.20;8.00;6.40
46302;PMS7003;32029;51.358;5.628;2023-12-20T14:05:16;9.60;8.00;6.20
46302;PMS7003;32029;51.358;5.628;2023-12-20T14:07:44;13.00;11.00;8.67
46302;PMS7003;32029;51.358;5.628;2023-12-20T14:10:12;10.20;9.00;7.00
46302;PMS7003;32029;51.358;5.628;2023-12-20T14:12:40;12.67;10.67;7.00
46302;PMS7003;32029;51.358;5.628;2023-12-20T14:15:08;7.00;5.80;4.00
46302;PMS7003;32029;51.358;5.628;2023-12-20T14:17:38;13.00;8.80;7.00
46302;PMS7003;32029;51.358;5.628;2023-12-20T14:20:07;9.40;8.00;6.00
46302;PMS7003;32029;51.358;5.628;2023-12-20T14:22:35;14.00;11.00;7.00
46302;PMS7003;32029;51.358;5.628;2023-12-20T14:25:03;8.20;8.00;5.40
46302;PMS7003;32029;51.358;5.628;2023-12-20T14:27:30;8.00;6.67;4.00
46302;PMS7003;32029;51.358;5.628;2023-12-20T14:29:57;6.00;6.00;5.40
46302;PMS7003;32029;51.358;5.628;2023-12-20T14:32:25;9.00;7.60;6.40
46302;PMS7003;32029;51.358;5.628;2023-12-20T14:34:55;10.80;7.60;5.40
46302;PMS7003;32029;51.358;5.628;2023-12-20T14:37:23;13.80;7.00;4.60
46302;PMS7003;32029;51.358;5.628;2023-12-20T14:39:50;6.80;6.80;6.00
46302;PMS7003;32029;51.358;5.628;2023-12-20T14:42:18;7.40;6.40;4.60
46302;PMS7003;32029;51.358;5.628;2023-12-20T14:44:45;5.33;3.00;2.00
46302;PMS7003;32029;51.358;5.628;2023-12-20T14:47:12;4.67;3.33;2.00
46302;PMS7003;32029;51.358;5.628;2023-12-20T14:49:41;3.00;2.40;1.80